sensor_id;sensor_type;location;lat;lon;timestamp;pressure;altitude;pressure_sealevel;temperature;humidity
52935;BME280;38802;50.198;19.796;2022-08-03T00:01:52;96519.39;;;16.02;79.73
52935;BME280;38802;50.198;19.796;2022-08-03T00:04:19;96520.27;;;16.02;79.82
52935;BME280;38802;50.198;19.796;2022-08-03T00:06:45;96519.15;;;16.01;79.89
52935;BME280;38802;50.198;19.796;2022-08-03T00:09:12;96517.90;;;15.99;79.92
52935;BME280;38802;50.198;19.796;2022-08-03T00:11:39;96514.86;;;15.98;80.06
52935;BME280;38802;50.198;19.796;2022-08-03T00:14:06;96516.64;;;15.98;80.04
52935;BME280;38802;50.198;19.796;2022-08-03T00:16:33;96518.11;;;15.97;80.04
52935;BME280;38802;50.198;19.796;2022-08-03T00:19:01;96522.02;;;15.97;80.17
52935;BME280;38802;50.198;19.796;2022-08-03T00:21:28;96524.05;;;15.96;80.23
52935;BME280;38802;50.198;19.796;2022-08-03T00:23:55;96525.95;;;15.95;80.15
52935;BME280;38802;50.198;19.796;2022-08-03T00:26:22;96526.00;;;15.94;80.41
52935;BME280;38802;50.198;19.796;2022-08-03T00:28:49;96526.14;;;15.94;80.46
52935;BME280;38802;50.198;19.796;2022-08-03T00:31:16;96531.23;;;15.94;80.54
52935;BME280;38802;50.198;19.796;2022-08-03T00:34:03;96529.69;;;15.94;80.59
52935;BME280;38802;50.198;19.796;2022-08-03T00:36:30;96530.89;;;15.92;80.66
52935;BME280;38802;50.198;19.796;2022-08-03T00:38:57;96526.38;;;15.92;80.57
52935;BME280;38802;50.198;19.796;2022-08-03T00:41:24;96526.41;;;15.92;80.64
52935;BME280;38802;50.198;19.796;2022-08-03T00:43:50;96529.51;;;15.92;80.68
52935;BME280;38802;50.198;19.796;2022-08-03T00:46:17;96526.16;;;15.92;80.77
52935;BME280;38802;50.198;19.796;2022-08-03T00:48:51;96525.05;;;15.91;80.64
52935;BME280;38802;50.198;19.796;2022-08-03T00:51:22;96530.90;;;15.90;80.76
52935;BME280;38802;50.198;19.796;2022-08-03T00:53:49;96531.62;;;15.90;80.92
52935;BME280;38802;50.198;19.796;2022-08-03T00:56:16;96530.58;;;15.91;80.73
52935;BME280;38802;50.198;19.796;2022-08-03T00:58:45;96529.35;;;15.90;80.79
52935;BME280;38802;50.198;19.796;2022-08-03T01:01:12;96532.27;;;15.89;80.99
52935;BME280;38802;50.198;19.796;2022-08-03T01:03:40;96528.52;;;15.88;80.99
52935;BME280;38802;50.198;19.796;2022-08-03T01:14:37;96527.64;;;15.88;81.39
52935;BME280;38802;50.198;19.796;2022-08-03T01:17:15;96525.02;;;15.88;81.55
52935;BME280;38802;50.198;19.796;2022-08-03T01:19:53;96527.98;;;15.87;81.04
52935;BME280;38802;50.198;19.796;2022-08-03T01:30:31;96525.48;;;15.85;81.54
52935;BME280;38802;50.198;19.796;2022-08-03T01:33:05;96530.73;;;15.85;81.72
52935;BME280;38802;50.198;19.796;2022-08-03T01:35:49;96530.85;;;15.84;81.53
52935;BME280;38802;50.198;19.796;2022-08-03T01:38:26;96534.79;;;15.83;81.51
52935;BME280;38802;50.198;19.796;2022-08-03T01:40:55;96532.41;;;15.83;81.69
52935;BME280;38802;50.198;19.796;2022-08-03T01:43:24;96528.60;;;15.82;81.86
52935;BME280;38802;50.198;19.796;2022-08-03T01:46:14;96526.03;;;15.82;81.94
52935;BME280;38802;50.198;19.796;2022-08-03T01:48:43;96530.07;;;15.81;82.01
52935;BME280;38802;50.198;19.796;2022-08-03T01:51:12;96527.39;;;15.82;82.09
52935;BME280;38802;50.198;19.796;2022-08-03T01:53:41;96525.98;;;15.82;81.95
52935;BME280;38802;50.198;19.796;2022-08-03T01:56:10;96520.67;;;15.81;82.02
52935;BME280;38802;50.198;19.796;2022-08-03T01:58:39;96522.17;;;15.80;82.04
52935;BME280;38802;50.198;19.796;2022-08-03T02:01:08;96523.98;;;15.79;82.17
52935;BME280;38802;50.198;19.796;2022-08-03T02:03:37;96520.20;;;15.79;82.32
52935;BME280;38802;50.198;19.796;2022-08-03T02:06:30;96520.06;;;15.78;82.37
52935;BME280;38802;50.198;19.796;2022-08-03T02:09:20;96518.21;;;15.77;82.39
52935;BME280;38802;50.198;19.796;2022-08-03T02:11:48;96516.94;;;15.78;82.55
52935;BME280;38802;50.198;19.796;2022-08-03T02:14:19;96514.20;;;15.77;82.26
52935;BME280;38802;50.198;19.796;2022-08-03T02:16:48;96514.33;;;15.76;82.68
52935;BME280;38802;50.198;19.796;2022-08-03T02:19:15;96514.23;;;15.75;82.45
52935;BME280;38802;50.198;19.796;2022-08-03T02:21:45;96513.97;;;15.76;82.72
52935;BME280;38802;50.198;19.796;2022-08-03T02:24:28;96511.03;;;15.79;82.85
52935;BME280;38802;50.198;19.796;2022-08-03T02:26:57;96511.54;;;15.81;82.73
52935;BME280;38802;50.198;19.796;2022-08-03T02:29:31;96510.98;;;15.81;82.67
52935;BME280;38802;50.198;19.796;2022-08-03T02:32:13;96507.87;;;15.81;83.05
52935;BME280;38802;50.198;19.796;2022-08-03T02:34:45;96504.41;;;15.81;82.52
52935;BME280;38802;50.198;19.796;2022-08-03T02:37:14;96510.84;;;15.79;82.74
52935;BME280;38802;50.198;19.796;2022-08-03T02:39:44;96512.02;;;15.78;82.85
52935;BME280;38802;50.198;19.796;2022-08-03T02:42:14;96512.14;;;15.77;82.79
52935;BME280;38802;50.198;19.796;2022-08-03T02:44:45;96513.59;;;15.75;82.96
52935;BME280;38802;50.198;19.796;2022-08-03T02:47:14;96510.34;;;15.74;82.85
52935;BME280;38802;50.198;19.796;2022-08-03T02:49:43;96508.77;;;15.74;82.88
52935;BME280;38802;50.198;19.796;2022-08-03T02:52:20;96512.94;;;15.74;82.88
52935;BME280;38802;50.198;19.796;2022-08-03T02:54:52;96514.21;;;15.74;83.03
52935;BME280;38802;50.198;19.796;2022-08-03T02:57:20;96518.50;;;15.73;83.38
52935;BME280;38802;50.198;19.796;2022-08-03T02:59:50;96518.17;;;15.73;82.97
52935;BME280;38802;50.198;19.796;2022-08-03T03:02:18;96517.71;;;15.72;83.39
52935;BME280;38802;50.198;19.796;2022-08-03T03:04:47;96518.10;;;15.72;83.32
52935;BME280;38802;50.198;19.796;2022-08-03T03:07:36;96514.13;;;15.71;83.42
52935;BME280;38802;50.198;19.796;2022-08-03T03:10:23;96518.94;;;15.70;83.38
52935;BME280;38802;50.198;19.796;2022-08-03T03:12:56;96517.73;;;15.70;83.26
52935;BME280;38802;50.198;19.796;2022-08-03T03:15:26;96523.61;;;15.71;83.45
52935;BME280;38802;50.198;19.796;2022-08-03T03:17:53;96523.84;;;15.70;83.54
52935;BME280;38802;50.198;19.796;2022-08-03T03:20:21;96521.21;;;15.70;83.55
52935;BME280;38802;50.198;19.796;2022-08-03T03:23:00;96522.56;;;15.70;83.61
52935;BME280;38802;50.198;19.796;2022-08-03T03:25:29;96521.16;;;15.71;83.74
52935;BME280;38802;50.198;19.796;2022-08-03T03:27:58;96521.47;;;15.69;83.55
52935;BME280;38802;50.198;19.796;2022-08-03T03:30:26;96528.15;;;15.67;83.71
52935;BME280;38802;50.198;19.796;2022-08-03T03:32:54;96529.59;;;15.67;83.54
52935;BME280;38802;50.198;19.796;2022-08-03T03:35:21;96532.21;;;15.67;83.87
52935;BME280;38802;50.198;19.796;2022-08-03T03:37:48;96526.63;;;15.66;83.70
52935;BME280;38802;50.198;19.796;2022-08-03T03:40:15;96532.65;;;15.67;83.58
52935;BME280;38802;50.198;19.796;2022-08-03T03:42:42;96528.23;;;15.70;83.81
52935;BME280;38802;50.198;19.796;2022-08-03T03:45:10;96527.39;;;15.72;83.90
52935;BME280;38802;50.198;19.796;2022-08-03T03:47:37;96522.30;;;15.71;84.06
52935;BME280;38802;50.198;19.796;2022-08-03T03:50:05;96525.33;;;15.71;83.93
52935;BME280;38802;50.198;19.796;2022-08-03T03:52:33;96522.86;;;15.71;83.96
52935;BME280;38802;50.198;19.796;2022-08-03T03:54:59;96525.40;;;15.72;84.06
52935;BME280;38802;50.198;19.796;2022-08-03T03:57:28;96530.62;;;15.73;84.07
52935;BME280;38802;50.198;19.796;2022-08-03T03:59:55;96529.77;;;15.74;84.13
52935;BME280;38802;50.198;19.796;2022-08-03T04:02:22;96532.52;;;15.76;84.15
52935;BME280;38802;50.198;19.796;2022-08-03T04:04:50;96533.47;;;15.79;84.31
52935;BME280;38802;50.198;19.796;2022-08-03T04:08:06;96536.84;;;15.82;84.21
52935;BME280;38802;50.198;19.796;2022-08-03T04:10:54;96540.20;;;15.85;84.28
52935;BME280;38802;50.198;19.796;2022-08-03T04:13:34;96541.95;;;15.87;84.47
52935;BME280;38802;50.198;19.796;2022-08-03T04:16:03;96542.52;;;15.92;84.63
52935;BME280;38802;50.198;19.796;2022-08-03T04:18:33;96539.33;;;15.96;84.47
52935;BME280;38802;50.198;19.796;2022-08-03T04:21:03;96542.74;;;16.00;84.71
52935;BME280;38802;50.198;19.796;2022-08-03T04:23:33;96548.38;;;16.07;84.85
52935;BME280;38802;50.198;19.796;2022-08-03T04:26:03;96550.23;;;16.15;85.09
52935;BME280;38802;50.198;19.796;2022-08-03T04:28:32;96547.96;;;16.23;85.20
52935;BME280;38802;50.198;19.796;2022-08-03T04:31:02;96552.14;;;16.32;85.08
52935;BME280;38802;50.198;19.796;2022-08-03T04:33:34;96553.80;;;16.40;85.37
52935;BME280;38802;50.198;19.796;2022-08-03T04:36:05;96554.56;;;16.48;85.23
52935;BME280;38802;50.198;19.796;2022-08-03T04:38:38;96559.54;;;16.55;85.27
52935;BME280;38802;50.198;19.796;2022-08-03T04:41:07;96561.79;;;16.62;85.39
52935;BME280;38802;50.198;19.796;2022-08-03T04:43:35;96556.46;;;16.70;85.36
52935;BME280;38802;50.198;19.796;2022-08-03T04:46:07;96559.66;;;16.78;85.55
52935;BME280;38802;50.198;19.796;2022-08-03T04:48:35;96563.23;;;16.87;85.52
52935;BME280;38802;50.198;19.796;2022-08-03T04:51:03;96561.52;;;16.98;85.63
52935;BME280;38802;50.198;19.796;2022-08-03T04:53:30;96565.25;;;17.07;85.68
52935;BME280;38802;50.198;19.796;2022-08-03T04:56:06;96565.82;;;17.19;85.80
52935;BME280;38802;50.198;19.796;2022-08-03T04:58:32;96563.98;;;17.31;85.73
52935;BME280;38802;50.198;19.796;2022-08-03T05:00:59;96565.63;;;17.43;85.87
52935;BME280;38802;50.198;19.796;2022-08-03T05:03:26;96562.59;;;17.56;85.82
52935;BME280;38802;50.198;19.796;2022-08-03T05:05:54;96562.80;;;17.71;85.80
52935;BME280;38802;50.198;19.796;2022-08-03T05:08:32;96567.27;;;17.89;85.93
52935;BME280;38802;50.198;19.796;2022-08-03T05:10:59;96569.23;;;18.05;85.93
52935;BME280;38802;50.198;19.796;2022-08-03T05:13:26;96571.09;;;18.22;85.72
52935;BME280;38802;50.198;19.796;2022-08-03T05:15:53;96566.73;;;18.41;85.85
52935;BME280;38802;50.198;19.796;2022-08-03T05:18:20;96566.02;;;18.62;85.82
52935;BME280;38802;50.198;19.796;2022-08-03T05:20:47;96565.50;;;18.83;85.75
52935;BME280;38802;50.198;19.796;2022-08-03T05:23:13;96563.83;;;19.03;85.55
52935;BME280;38802;50.198;19.796;2022-08-03T05:25:40;96564.48;;;19.21;85.20
52935;BME280;38802;50.198;19.796;2022-08-03T05:28:16;96569.70;;;19.37;84.95
52935;BME280;38802;50.198;19.796;2022-08-03T05:30:43;96570.55;;;19.50;84.85
52935;BME280;38802;50.198;19.796;2022-08-03T05:33:10;96567.36;;;19.59;84.60
52935;BME280;38802;50.198;19.796;2022-08-03T05:35:37;96565.83;;;19.62;84.31
52935;BME280;38802;50.198;19.796;2022-08-03T05:38:25;96571.38;;;19.57;83.68
52935;BME280;38802;50.198;19.796;2022-08-03T05:41:02;96571.20;;;19.48;83.37
52935;BME280;38802;50.198;19.796;2022-08-03T05:43:53;96572.29;;;19.42;83.24
52935;BME280;38802;50.198;19.796;2022-08-03T05:46:21;96570.20;;;19.41;83.68
52935;BME280;38802;50.198;19.796;2022-08-03T05:48:49;96570.35;;;19.53;83.66
52935;BME280;38802;50.198;19.796;2022-08-03T05:51:16;96571.16;;;19.69;84.06
52935;BME280;38802;50.198;19.796;2022-08-03T05:53:43;96567.46;;;19.89;83.81
52935;BME280;38802;50.198;19.796;2022-08-03T05:56:10;96569.31;;;20.10;83.71
52935;BME280;38802;50.198;19.796;2022-08-03T05:58:43;96564.17;;;20.33;83.56
52935;BME280;38802;50.198;19.796;2022-08-03T06:01:10;96567.88;;;20.56;83.19
52935;BME280;38802;50.198;19.796;2022-08-03T06:03:37;96564.55;;;20.73;83.06
52935;BME280;38802;50.198;19.796;2022-08-03T06:06:04;96563.41;;;20.95;82.75
52935;BME280;38802;50.198;19.796;2022-08-03T06:08:30;96567.60;;;21.17;82.30
52935;BME280;38802;50.198;19.796;2022-08-03T06:10:57;96565.82;;;21.41;81.74
52935;BME280;38802;50.198;19.796;2022-08-03T06:13:24;96567.44;;;21.58;81.41
52935;BME280;38802;50.198;19.796;2022-08-03T06:15:51;96571.02;;;21.77;80.82
52935;BME280;38802;50.198;19.796;2022-08-03T06:18:18;96571.22;;;21.97;80.26
52935;BME280;38802;50.198;19.796;2022-08-03T06:20:45;96569.42;;;22.10;79.51
52935;BME280;38802;50.198;19.796;2022-08-03T06:23:16;96570.42;;;22.19;78.87
52935;BME280;38802;50.198;19.796;2022-08-03T06:25:44;96571.52;;;22.32;78.94
52935;BME280;38802;50.198;19.796;2022-08-03T06:28:12;96573.08;;;22.39;78.70
52935;BME280;38802;50.198;19.796;2022-08-03T06:31:04;96574.67;;;22.49;77.88
52935;BME280;38802;50.198;19.796;2022-08-03T06:33:33;96575.09;;;22.51;77.74
52935;BME280;38802;50.198;19.796;2022-08-03T06:36:20;96575.65;;;22.44;76.83
52935;BME280;38802;50.198;19.796;2022-08-03T06:38:46;96577.81;;;22.28;76.87
52935;BME280;38802;50.198;19.796;2022-08-03T06:41:14;96576.89;;;22.13;76.39
52935;BME280;38802;50.198;19.796;2022-08-03T06:43:41;96582.51;;;21.98;76.06
52935;BME280;38802;50.198;19.796;2022-08-03T06:46:28;96580.91;;;21.83;76.11
52935;BME280;38802;50.198;19.796;2022-08-03T06:48:55;96582.63;;;21.75;76.34
52935;BME280;38802;50.198;19.796;2022-08-03T06:51:22;96583.80;;;21.74;76.12
52935;BME280;38802;50.198;19.796;2022-08-03T06:54:09;96581.91;;;21.80;76.42
52935;BME280;38802;50.198;19.796;2022-08-03T06:56:36;96581.66;;;21.92;76.26
52935;BME280;38802;50.198;19.796;2022-08-03T06:59:04;96580.72;;;22.06;76.04
52935;BME280;38802;50.198;19.796;2022-08-03T07:01:32;96579.17;;;22.24;76.14
52935;BME280;38802;50.198;19.796;2022-08-03T07:03:59;96575.52;;;22.43;75.65
52935;BME280;38802;50.198;19.796;2022-08-03T07:06:26;96575.89;;;22.62;75.02
52935;BME280;38802;50.198;19.796;2022-08-03T07:08:53;96573.77;;;22.78;74.60
52935;BME280;38802;50.198;19.796;2022-08-03T07:11:25;96574.63;;;22.87;73.98
52935;BME280;38802;50.198;19.796;2022-08-03T07:13:53;96575.48;;;22.93;73.59
52935;BME280;38802;50.198;19.796;2022-08-03T07:16:21;96574.21;;;22.96;73.81
52935;BME280;38802;50.198;19.796;2022-08-03T07:18:48;96573.77;;;22.98;73.47
52935;BME280;38802;50.198;19.796;2022-08-03T07:21:15;96575.30;;;22.90;73.10
52935;BME280;38802;50.198;19.796;2022-08-03T07:23:42;96573.99;;;22.96;72.82
52935;BME280;38802;50.198;19.796;2022-08-03T07:26:09;96574.90;;;23.07;72.77
52935;BME280;38802;50.198;19.796;2022-08-03T07:28:36;96576.54;;;23.23;72.60
52935;BME280;38802;50.198;19.796;2022-08-03T07:31:03;96575.95;;;23.39;71.49
52935;BME280;38802;50.198;19.796;2022-08-03T07:33:29;96577.41;;;23.56;71.14
52935;BME280;38802;50.198;19.796;2022-08-03T07:35:56;96578.21;;;23.72;70.42
52935;BME280;38802;50.198;19.796;2022-08-03T07:38:24;96579.95;;;23.90;69.78
52935;BME280;38802;50.198;19.796;2022-08-03T07:40:52;96580.36;;;24.08;69.20
52935;BME280;38802;50.198;19.796;2022-08-03T07:43:19;96575.98;;;24.12;68.80
52935;BME280;38802;50.198;19.796;2022-08-03T07:45:46;96577.05;;;24.11;68.57
52935;BME280;38802;50.198;19.796;2022-08-03T07:48:15;96577.27;;;24.29;69.05
52935;BME280;38802;50.198;19.796;2022-08-03T07:50:42;96575.20;;;24.53;68.34
52935;BME280;38802;50.198;19.796;2022-08-03T07:53:10;96577.26;;;24.72;67.41
52935;BME280;38802;50.198;19.796;2022-08-03T07:55:37;96575.62;;;24.80;66.87
52935;BME280;38802;50.198;19.796;2022-08-03T07:58:07;96574.24;;;25.00;66.69
52935;BME280;38802;50.198;19.796;2022-08-03T08:00:35;96578.17;;;24.97;65.67
52935;BME280;38802;50.198;19.796;2022-08-03T08:03:03;96578.61;;;24.80;65.71
52935;BME280;38802;50.198;19.796;2022-08-03T08:05:30;96582.21;;;24.56;65.16
52935;BME280;38802;50.198;19.796;2022-08-03T08:07:57;96583.20;;;24.37;65.37
52935;BME280;38802;50.198;19.796;2022-08-03T08:10:24;96580.22;;;24.20;64.79
52935;BME280;38802;50.198;19.796;2022-08-03T08:12:54;96581.34;;;24.03;64.80
52935;BME280;38802;50.198;19.796;2022-08-03T08:15:21;96579.61;;;23.87;64.78
52935;BME280;38802;50.198;19.796;2022-08-03T08:17:53;96582.35;;;23.74;65.07
52935;BME280;38802;50.198;19.796;2022-08-03T08:20:23;96584.64;;;23.61;64.98
52935;BME280;38802;50.198;19.796;2022-08-03T08:23:00;96586.66;;;23.51;65.31
52935;BME280;38802;50.198;19.796;2022-08-03T08:25:30;96586.81;;;23.41;65.53
52935;BME280;38802;50.198;19.796;2022-08-03T08:27:59;96588.77;;;23.32;65.40
52935;BME280;38802;50.198;19.796;2022-08-03T08:30:51;96588.67;;;23.23;65.72
52935;BME280;38802;50.198;19.796;2022-08-03T08:33:23;96589.59;;;23.27;65.98
52935;BME280;38802;50.198;19.796;2022-08-03T08:35:52;96587.01;;;23.51;66.17
52935;BME280;38802;50.198;19.796;2022-08-03T08:38:20;96583.13;;;23.71;64.49
52935;BME280;38802;50.198;19.796;2022-08-03T08:40:48;96586.25;;;23.87;65.20
52935;BME280;38802;50.198;19.796;2022-08-03T08:43:15;96587.83;;;24.08;64.53
52935;BME280;38802;50.198;19.796;2022-08-03T08:45:42;96585.95;;;24.27;64.43
52935;BME280;38802;50.198;19.796;2022-08-03T08:48:12;96585.25;;;24.45;64.50
52935;BME280;38802;50.198;19.796;2022-08-03T08:50:40;96588.11;;;24.52;64.27
52935;BME280;38802;50.198;19.796;2022-08-03T08:53:09;96587.17;;;24.44;64.03
52935;BME280;38802;50.198;19.796;2022-08-03T08:55:46;96590.63;;;24.32;63.95
52935;BME280;38802;50.198;19.796;2022-08-03T08:58:34;96592.21;;;24.18;63.49
52935;BME280;38802;50.198;19.796;2022-08-03T09:01:02;96590.58;;;24.16;63.59
52935;BME280;38802;50.198;19.796;2022-08-03T09:03:32;96592.30;;;24.20;63.40
52935;BME280;38802;50.198;19.796;2022-08-03T09:06:00;96592.29;;;24.11;63.00
52935;BME280;38802;50.198;19.796;2022-08-03T09:08:29;96595.38;;;24.01;62.82
52935;BME280;38802;50.198;19.796;2022-08-03T09:10:56;96596.38;;;23.91;63.03
52935;BME280;38802;50.198;19.796;2022-08-03T09:13:24;96594.36;;;23.87;63.30
52935;BME280;38802;50.198;19.796;2022-08-03T09:18:38;96591.85;;;23.83;63.49
52935;BME280;38802;50.198;19.796;2022-08-03T09:21:20;96587.61;;;23.82;63.26
52935;BME280;38802;50.198;19.796;2022-08-03T09:24:04;96591.60;;;23.77;63.25
52935;BME280;38802;50.198;19.796;2022-08-03T09:26:50;96591.80;;;23.70;63.12
52935;BME280;38802;50.198;19.796;2022-08-03T09:29:20;96590.10;;;23.64;63.38
52935;BME280;38802;50.198;19.796;2022-08-03T09:31:48;96590.48;;;23.61;63.16
52935;BME280;38802;50.198;19.796;2022-08-03T09:34:16;96589.46;;;23.60;63.15
52935;BME280;38802;50.198;19.796;2022-08-03T09:36:49;96592.73;;;23.56;63.24
52935;BME280;38802;50.198;19.796;2022-08-03T09:39:17;96589.92;;;23.55;63.33
52935;BME280;38802;50.198;19.796;2022-08-03T09:41:47;96590.64;;;23.53;63.06
52935;BME280;38802;50.198;19.796;2022-08-03T09:44:15;96588.95;;;23.55;63.38
52935;BME280;38802;50.198;19.796;2022-08-03T09:46:53;96590.58;;;23.54;63.15
52935;BME280;38802;50.198;19.796;2022-08-03T09:49:22;96588.16;;;23.46;62.93
52935;BME280;38802;50.198;19.796;2022-08-03T09:51:49;96586.48;;;23.41;62.93
52935;BME280;38802;50.198;19.796;2022-08-03T09:54:37;96586.70;;;23.39;63.17
52935;BME280;38802;50.198;19.796;2022-08-03T09:57:07;96585.48;;;23.39;62.96
52935;BME280;38802;50.198;19.796;2022-08-03T09:59:34;96583.34;;;23.38;62.55
52935;BME280;38802;50.198;19.796;2022-08-03T10:02:20;96583.83;;;23.37;63.16
52935;BME280;38802;50.198;19.796;2022-08-03T10:04:47;96584.58;;;23.38;63.27
52935;BME280;38802;50.198;19.796;2022-08-03T10:07:16;96580.77;;;23.42;63.41
52935;BME280;38802;50.198;19.796;2022-08-03T10:10:00;96580.14;;;23.45;63.41
52935;BME280;38802;50.198;19.796;2022-08-03T10:12:48;96578.64;;;23.53;63.44
52935;BME280;38802;50.198;19.796;2022-08-03T10:15:16;96582.13;;;23.57;63.28
52935;BME280;38802;50.198;19.796;2022-08-03T10:18:03;96578.45;;;23.57;63.30
52935;BME280;38802;50.198;19.796;2022-08-03T10:20:32;96576.13;;;23.59;63.11
52935;BME280;38802;50.198;19.796;2022-08-03T10:23:04;96577.80;;;23.69;63.01
52935;BME280;38802;50.198;19.796;2022-08-03T10:25:32;96576.27;;;23.87;62.65
52935;BME280;38802;50.198;19.796;2022-08-03T10:28:01;96576.33;;;23.94;62.63
52935;BME280;38802;50.198;19.796;2022-08-03T10:30:32;96572.06;;;23.92;61.94
52935;BME280;38802;50.198;19.796;2022-08-03T10:33:27;96574.95;;;23.86;61.79
52935;BME280;38802;50.198;19.796;2022-08-03T10:36:13;96576.11;;;23.80;61.72
52935;BME280;38802;50.198;19.796;2022-08-03T10:38:52;96574.79;;;23.79;61.55
52935;BME280;38802;50.198;19.796;2022-08-03T10:41:22;96576.99;;;23.77;61.66
52935;BME280;38802;50.198;19.796;2022-08-03T10:46:32;96573.23;;;23.79;61.34
52935;BME280;38802;50.198;19.796;2022-08-03T10:48:59;96572.73;;;23.97;61.14
52935;BME280;38802;50.198;19.796;2022-08-03T10:51:27;96571.20;;;24.15;59.62
52935;BME280;38802;50.198;19.796;2022-08-03T10:53:58;96568.31;;;24.27;59.33
52935;BME280;38802;50.198;19.796;2022-08-03T11:02:13;96560.60;;;24.76;59.09
52935;BME280;38802;50.198;19.796;2022-08-03T11:04:41;96554.44;;;24.90;58.31
52935;BME280;38802;50.198;19.796;2022-08-03T11:07:20;96553.20;;;25.04;56.40
52935;BME280;38802;50.198;19.796;2022-08-03T11:09:51;96555.89;;;25.16;55.73
52935;BME280;38802;50.198;19.796;2022-08-03T11:12:25;96550.05;;;25.22;54.36
52935;BME280;38802;50.198;19.796;2022-08-03T11:15:09;96553.07;;;25.28;55.02
52935;BME280;38802;50.198;19.796;2022-08-03T11:17:36;96550.27;;;25.42;55.46
52935;BME280;38802;50.198;19.796;2022-08-03T11:20:52;96557.67;;;25.57;53.83
52935;BME280;38802;50.198;19.796;2022-08-03T11:23:44;96552.80;;;25.59;53.25
52935;BME280;38802;50.198;19.796;2022-08-03T11:26:31;96551.10;;;25.70;52.50
52935;BME280;38802;50.198;19.796;2022-08-03T11:29:26;96550.99;;;25.79;52.31
52935;BME280;38802;50.198;19.796;2022-08-03T11:31:54;96543.20;;;25.85;51.18
52935;BME280;38802;50.198;19.796;2022-08-03T11:34:20;96545.16;;;25.85;50.64
52935;BME280;38802;50.198;19.796;2022-08-03T11:37:19;96538.68;;;25.85;49.91
52935;BME280;38802;50.198;19.796;2022-08-03T11:39:49;96535.42;;;25.94;50.74
52935;BME280;38802;50.198;19.796;2022-08-03T11:44:50;96535.79;;;26.00;50.26
52935;BME280;38802;50.198;19.796;2022-08-03T11:47:19;96532.80;;;26.04;50.52
52935;BME280;38802;50.198;19.796;2022-08-03T11:49:47;96528.39;;;26.04;49.84
52935;BME280;38802;50.198;19.796;2022-08-03T11:52:16;96529.95;;;26.03;50.21
52935;BME280;38802;50.198;19.796;2022-08-03T11:54:44;96530.39;;;25.98;48.44
52935;BME280;38802;50.198;19.796;2022-08-03T11:57:11;96530.36;;;25.73;47.91
52935;BME280;38802;50.198;19.796;2022-08-03T11:59:37;96529.21;;;25.58;48.85
52935;BME280;38802;50.198;19.796;2022-08-03T12:02:06;96527.56;;;25.51;49.63
52935;BME280;38802;50.198;19.796;2022-08-03T12:04:57;96529.30;;;25.46;49.82
52935;BME280;38802;50.198;19.796;2022-08-03T12:07:27;96529.96;;;25.47;49.59
52935;BME280;38802;50.198;19.796;2022-08-03T12:10:14;96526.48;;;25.47;49.60
52935;BME280;38802;50.198;19.796;2022-08-03T12:12:41;96523.28;;;25.45;49.41
52935;BME280;38802;50.198;19.796;2022-08-03T12:15:12;96523.80;;;25.48;50.03
52935;BME280;38802;50.198;19.796;2022-08-03T12:17:40;96523.35;;;25.54;49.51
52935;BME280;38802;50.198;19.796;2022-08-03T12:20:09;96523.36;;;25.51;49.24
52935;BME280;38802;50.198;19.796;2022-08-03T12:22:38;96517.77;;;25.48;48.94
52935;BME280;38802;50.198;19.796;2022-08-03T12:25:07;96515.13;;;25.49;48.36
52935;BME280;38802;50.198;19.796;2022-08-03T12:27:35;96515.05;;;25.50;48.03
52935;BME280;38802;50.198;19.796;2022-08-03T12:30:02;96515.98;;;25.54;48.50
52935;BME280;38802;50.198;19.796;2022-08-03T12:32:30;96514.34;;;25.57;48.11
52935;BME280;38802;50.198;19.796;2022-08-03T12:34:57;96509.35;;;25.56;48.11
52935;BME280;38802;50.198;19.796;2022-08-03T12:37:30;96503.69;;;25.57;46.97
52935;BME280;38802;50.198;19.796;2022-08-03T12:39:59;96503.36;;;25.58;47.19
52935;BME280;38802;50.198;19.796;2022-08-03T12:42:37;96504.54;;;25.63;46.27
52935;BME280;38802;50.198;19.796;2022-08-03T12:45:23;96505.57;;;25.62;46.39
52935;BME280;38802;50.198;19.796;2022-08-03T12:47:54;96499.11;;;25.66;47.13
52935;BME280;38802;50.198;19.796;2022-08-03T12:50:32;96500.94;;;25.72;47.13
52935;BME280;38802;50.198;19.796;2022-08-03T12:53:01;96497.30;;;25.75;46.57
52935;BME280;38802;50.198;19.796;2022-08-03T12:55:30;96494.58;;;25.84;47.14
52935;BME280;38802;50.198;19.796;2022-08-03T12:58:34;96491.86;;;25.96;47.11
52935;BME280;38802;50.198;19.796;2022-08-03T13:01:03;96491.54;;;26.04;46.48
52935;BME280;38802;50.198;19.796;2022-08-03T13:03:46;96488.26;;;26.09;46.30
52935;BME280;38802;50.198;19.796;2022-08-03T13:06:26;96492.30;;;26.11;45.23
52935;BME280;38802;50.198;19.796;2022-08-03T13:09:02;96488.58;;;26.04;44.84
52935;BME280;38802;50.198;19.796;2022-08-03T13:11:29;96488.05;;;26.04;45.69
52935;BME280;38802;50.198;19.796;2022-08-03T13:14:16;96485.92;;;26.02;46.22
52935;BME280;38802;50.198;19.796;2022-08-03T13:16:49;96487.44;;;26.00;46.00
52935;BME280;38802;50.198;19.796;2022-08-03T13:19:15;96489.20;;;25.88;45.72
52935;BME280;38802;50.198;19.796;2022-08-03T13:21:43;96488.38;;;25.82;45.65
52935;BME280;38802;50.198;19.796;2022-08-03T13:24:31;96487.73;;;25.81;46.50
52935;BME280;38802;50.198;19.796;2022-08-03T13:26:59;96492.77;;;25.85;46.15
52935;BME280;38802;50.198;19.796;2022-08-03T13:29:48;96492.21;;;25.81;45.98
52935;BME280;38802;50.198;19.796;2022-08-03T13:32:15;96494.67;;;25.75;46.15
52935;BME280;38802;50.198;19.796;2022-08-03T13:34:42;96483.52;;;25.74;46.24
52935;BME280;38802;50.198;19.796;2022-08-03T13:37:09;96485.47;;;25.70;46.28
52935;BME280;38802;50.198;19.796;2022-08-03T13:39:38;96488.19;;;25.66;46.27
52935;BME280;38802;50.198;19.796;2022-08-03T13:42:26;96488.40;;;25.68;45.90
52935;BME280;38802;50.198;19.796;2022-08-03T13:44:53;96491.06;;;25.69;45.50